createdAt,value
2022-11-17T00:02:06.050Z,99551.31
2022-11-17T00:04:37.171Z,99548.38
2022-11-17T00:07:14.375Z,99544.78
2022-11-17T00:09:53.863Z,99546.21
2022-11-17T00:12:43.402Z,99546.39
2022-11-17T00:15:21.120Z,99543.54
2022-11-17T00:18:20.778Z,99539.27
2022-11-17T00:21:53.282Z,99538.26
2022-11-17T00:25:37.032Z,99530.67
2022-11-17T00:28:59.894Z,99541.30
2022-11-17T00:32:01.278Z,99537.82
2022-11-17T00:34:46.237Z,99532.69
2022-11-17T00:37:18.530Z,99534.23
2022-11-17T00:40:01.020Z,99531.52
2022-11-17T00:42:40.329Z,99528.61
2022-11-17T00:45:28.947Z,99530.74
2022-11-17T00:48:11.996Z,99528.09
2022-11-17T00:50:53.824Z,99527.75
2022-11-17T00:54:24.699Z,99524.19
2022-11-17T00:57:04.831Z,99526.65
2022-11-17T00:59:41.657Z,99523.25
2022-11-17T01:02:29.283Z,99523.77
2022-11-17T01:05:17.348Z,99520.73
2022-11-17T01:07:52.927Z,99517.64
2022-11-17T01:10:27.399Z,99515.02
2022-11-17T01:13:04.504Z,99513.81
2022-11-17T01:15:57.351Z,99519.01
2022-11-17T01:18:37.918Z,99514.43
2022-11-17T01:21:54.403Z,99519.62
2022-11-17T01:24:45.246Z,99519.45
2022-11-17T01:27:27.527Z,99516.45
2022-11-17T01:29:58.900Z,99512.74
2022-11-17T01:32:44.364Z,99520.30
2022-11-17T01:35:28.017Z,99524.25
2022-11-17T01:38:11.249Z,99526.47
2022-11-17T01:41:00.574Z,99520.80
2022-11-17T01:43:58.071Z,99520.79
2022-11-17T01:46:49.015Z,99514.77
2022-11-17T01:49:34.818Z,99516.83
2022-11-17T01:52:24.004Z,99516.13
2022-11-17T01:55:32.326Z,99515.77
2022-11-17T01:59:03.295Z,99512.64
2022-11-17T02:02:35.006Z,99505.84
2022-11-17T02:06:02.571Z,99509.64
2022-11-17T02:08:39.393Z,99509.95
2022-11-17T02:11:25.480Z,99510.16
2022-11-17T02:14:23.575Z,99513.05
2022-11-17T02:20:34.735Z,99501.32
2022-11-17T02:26:40.339Z,99506.23
2022-11-17T02:29:49.561Z,99502.45
2022-11-17T02:32:30.117Z,99502.95
2022-11-17T02:35:17.154Z,99501.17
2022-11-17T02:38:16.357Z,99502.85
2022-11-17T02:41:39.601Z,99503.02
2022-11-17T02:44:43.061Z,99504.38
2022-11-17T02:47:29.800Z,99501.30
2022-11-17T02:50:17.440Z,99498.92
2022-11-17T02:52:49.628Z,99502.33
2022-11-17T02:55:21.281Z,99499.01
2022-11-17T02:57:52.724Z,99496.45
2022-11-17T03:00:23.773Z,99495.27
2022-11-17T03:03:04.390Z,99500.08
2022-11-17T03:06:09.752Z,99501.95
2022-11-17T03:09:02.741Z,99501.80
2022-11-17T03:11:49.306Z,99498.58
2022-11-17T03:15:01.516Z,99497.59
2022-11-17T03:18:13.619Z,99498.29
2022-11-17T03:21:40.894Z,99495.56
2022-11-17T03:24:57.612Z,99496.60
2022-11-17T03:28:00.133Z,99496.29
2022-11-17T03:31:15.558Z,99495.60
2022-11-17T03:33:53.758Z,99491.48
2022-11-17T03:36:34.930Z,99492.13
2022-11-17T03:39:19.332Z,99489.31
2022-11-17T03:41:54.047Z,99485.73
2022-11-17T03:44:28.331Z,99486.88
2022-11-17T03:46:59.313Z,99483.63
2022-11-17T03:49:59.404Z,99481.37
2022-11-17T03:52:39.198Z,99480.92
2022-11-17T03:56:00.445Z,99481.30
2022-11-17T03:58:24.580Z,99479.77
2022-11-17T04:01:12.553Z,99477.69
2022-11-17T04:04:31.218Z,99476.63
2022-11-17T04:06:46.000Z,99479.23
2022-11-17T04:09:27.969Z,99478.23
2022-11-17T04:12:14.678Z,99476.54
2022-11-17T04:15:05.151Z,99480.54
2022-11-17T04:17:38.551Z,99487.59
2022-11-17T04:20:09.585Z,99485.02
2022-11-17T04:22:39.073Z,99484.63
2022-11-17T04:25:38.149Z,99483.59
2022-11-17T04:28:27.603Z,99487.04
2022-11-17T04:31:06.973Z,99488.40
2022-11-17T04:33:53.582Z,99491.96
2022-11-17T04:36:46.166Z,99496.58
2022-11-17T04:39:40.997Z,99496.61
2022-11-17T04:42:24.270Z,99493.39
2022-11-17T04:45:07.881Z,99487.55
2022-11-17T04:47:47.104Z,99487.92
2022-11-17T04:50:26.759Z,99490.58
2022-11-17T04:53:41.552Z,99496.09
2022-11-17T04:56:16.094Z,99497.86
2022-11-17T04:58:55.573Z,99496.79
2022-11-17T05:01:37.177Z,99499.04
2022-11-17T05:04:59.906Z,99500.55
2022-11-17T05:07:40.756Z,99497.64
2022-11-17T05:10:14.874Z,99498.13
2022-11-17T05:13:02.644Z,99499.46
2022-11-17T05:15:52.528Z,99500.80
2022-11-17T05:18:23.721Z,99498.38
2022-11-17T05:21:04.225Z,99505.27
2022-11-17T05:23:57.553Z,99504.56
2022-11-17T05:26:33.156Z,99507.81
2022-11-17T05:29:26.371Z,99510.33
2022-11-17T05:34:59.356Z,99508.94
2022-11-17T05:37:38.890Z,99510.77
2022-11-17T05:40:14.002Z,99506.76
2022-11-17T05:42:43.028Z,99506.88
2022-11-17T05:45:18.440Z,99500.17
2022-11-17T05:48:28.023Z,99503.11
2022-11-17T05:50:56.623Z,99507.94
2022-11-17T05:53:25.620Z,99508.23
2022-11-17T05:56:48.735Z,99512.20
2022-11-17T05:59:47.506Z,99515.59
2022-11-17T06:03:07.850Z,99517.12
2022-11-17T06:05:40.655Z,99515.58
2022-11-17T06:08:39.915Z,99527.35
2022-11-17T06:11:14.371Z,99520.32
2022-11-17T06:13:42.764Z,99521.80
2022-11-17T06:16:16.125Z,99525.80
2022-11-17T06:18:51.490Z,99528.63
2022-11-17T06:21:49.297Z,99532.35
2022-11-17T06:24:27.825Z,99531.27
2022-11-17T06:27:13.548Z,99529.38
2022-11-17T06:29:44.856Z,99531.08
2022-11-17T06:32:44.673Z,99530.59
2022-11-17T06:35:34.390Z,99532.98
2022-11-17T06:39:44.239Z,99536.30
2022-11-17T06:41:40.890Z,99535.85
2022-11-17T06:44:29.088Z,99542.20
2022-11-17T06:47:30.674Z,99544.30
2022-11-17T06:50:05.081Z,99543.45
2022-11-17T06:52:34.678Z,99549.98
2022-11-17T06:55:06.022Z,99550.55
2022-11-17T06:57:33.781Z,99545.30
2022-11-17T07:00:01.812Z,99542.63
2022-11-17T07:02:33.763Z,99542.98
2022-11-17T07:05:18.590Z,99545.43
2022-11-17T07:07:52.756Z,99547.05
2022-11-17T07:10:30.871Z,99545.34
2022-11-17T07:13:00.807Z,99551.34
2022-11-17T07:15:50.740Z,99549.98
2022-11-17T07:18:28.527Z,99549.45
2022-11-17T07:21:04.941Z,99549.76
2022-11-17T07:23:43.898Z,99551.84
2022-11-17T07:27:19.461Z,99550.34
2022-11-17T07:30:19.665Z,99547.31
2022-11-17T07:33:06.180Z,99546.78
2022-11-17T07:35:44.906Z,99546.75
2022-11-17T07:38:20.946Z,99548.95
2022-11-17T07:42:48.155Z,99550.41
2022-11-17T07:44:30.906Z,99553.33
2022-11-17T07:47:24.514Z,99554.31
2022-11-17T07:50:17.844Z,99553.77
2022-11-17T07:52:55.870Z,99549.03
2022-11-17T07:55:25.505Z,99551.31
2022-11-17T07:58:01.940Z,99551.47
2022-11-17T08:00:33.631Z,99555.81
2022-11-17T08:03:03.930Z,99557.86
2022-11-17T08:05:51.276Z,99556.55
2022-11-17T08:08:19.605Z,99552.58
2022-11-17T08:10:53.408Z,99553.20
2022-11-17T08:13:21.841Z,99556.36
2022-11-17T08:15:56.752Z,99561.96
2022-11-17T08:18:25.826Z,99554.25
2022-11-17T08:21:07.813Z,99552.71
2022-11-17T08:23:37.097Z,99550.00
2022-11-17T08:26:07.643Z,99548.24
2022-11-17T08:28:36.828Z,99551.52
2022-11-17T08:31:11.323Z,99554.55
2022-11-17T08:33:48.379Z,99544.98
2022-11-17T08:36:41.328Z,99545.51
2022-11-17T08:39:15.918Z,99542.26
2022-11-17T08:42:00.158Z,99547.45
2022-11-17T08:44:51.229Z,99547.36
2022-11-17T08:47:19.504Z,99549.88
2022-11-17T08:49:47.424Z,99541.35
2022-11-17T08:52:15.429Z,99548.98
2022-11-17T08:54:49.422Z,99548.59
2022-11-17T08:57:22.566Z,99549.27
2022-11-17T08:59:50.531Z,99545.96
2022-11-17T09:02:19.720Z,99552.04
2022-11-17T09:04:50.021Z,99556.02
2022-11-17T09:07:18.562Z,99561.06
2022-11-17T09:09:53.830Z,99563.41
2022-11-17T09:12:28.008Z,99569.40
2022-11-17T09:14:56.453Z,99566.34
2022-11-17T09:17:27.987Z,99562.38
2022-11-17T09:19:59.038Z,99566.51
2022-11-17T09:22:31.594Z,99563.05
2022-11-17T09:24:59.674Z,99562.97
2022-11-17T09:27:32.993Z,99564.12
2022-11-17T09:30:02.966Z,99565.39
2022-11-17T09:32:33.619Z,99565.27
2022-11-17T09:35:05.687Z,99567.39
2022-11-17T09:37:33.641Z,99566.70
2022-11-17T09:40:01.538Z,99571.68
2022-11-17T09:42:30.319Z,99569.42
2022-11-17T09:45:14.862Z,99567.27
2022-11-17T09:48:33.406Z,99559.52
2022-11-17T09:50:58.589Z,99559.31
2022-11-17T09:53:38.982Z,99561.30
2022-11-17T09:56:10.961Z,99555.13
2022-11-17T09:59:04.057Z,99556.81
2022-11-17T10:01:31.880Z,99560.59
2022-11-17T10:04:00.841Z,99555.23
2022-11-17T10:06:31.327Z,99558.08
2022-11-17T10:09:35.717Z,99554.55
2022-11-17T10:12:32.175Z,99554.13
2022-11-17T10:15:22.156Z,99557.59
2022-11-17T10:17:51.033Z,99553.91
2022-11-17T10:20:19.788Z,99549.62
2022-11-17T10:22:49.625Z,99548.59
2022-11-17T10:25:37.235Z,99544.62
2022-11-17T10:28:30.262Z,99543.10
2022-11-17T10:31:22.280Z,99539.66
2022-11-17T10:33:53.586Z,99542.83
2022-11-17T10:36:29.323Z,99546.09
2022-11-17T10:38:59.859Z,99546.83
2022-11-17T10:41:44.708Z,99549.66
2022-11-17T10:44:41.618Z,99550.21
2022-11-17T10:47:39.292Z,99550.11
2022-11-17T10:50:26.972Z,99551.59
2022-11-17T10:53:44.949Z,99551.83
2022-11-17T10:56:21.061Z,99550.56
2022-11-17T10:59:09.389Z,99556.06
2022-11-17T11:01:41.904Z,99557.41
2022-11-17T11:04:42.389Z,99562.24
2022-11-17T11:07:23.779Z,99561.77
2022-11-17T11:10:07.123Z,99558.34
2022-11-17T11:13:06.043Z,99557.83
2022-11-17T11:15:53.867Z,99558.42
2022-11-17T11:18:21.713Z,99561.50
2022-11-17T11:20:52.061Z,99564.59
2022-11-17T11:23:49.791Z,99563.27
2022-11-17T11:27:01.825Z,99557.84
2022-11-17T11:29:57.277Z,99556.47
2022-11-17T11:33:04.568Z,99555.35
2022-11-17T11:36:35.669Z,99554.87
2022-11-17T11:39:32.054Z,99549.45
2022-11-17T11:42:36.826Z,99551.17
2022-11-17T11:45:48.476Z,99552.43
2022-11-17T11:48:36.258Z,99554.00
2022-11-17T11:51:30.603Z,99557.81
2022-11-17T11:54:14.275Z,99551.69
2022-11-17T11:56:45.529Z,99552.55
2022-11-17T11:59:34.232Z,99555.44
2022-11-17T12:02:43.754Z,99553.36
2022-11-17T12:05:45.176Z,99541.58
2022-11-17T12:08:45.273Z,99532.25
2022-11-17T12:11:34.308Z,99538.08
2022-11-17T12:14:06.643Z,99542.42
2022-11-17T12:16:36.223Z,99545.34
2022-11-17T12:20:00.287Z,99547.90
2022-11-17T12:22:33.346Z,99544.88
2022-11-17T12:25:28.566Z,99542.66
2022-11-17T12:27:56.785Z,99545.00
2022-11-17T12:30:30.575Z,99548.59
2022-11-17T12:33:00.762Z,99544.81
2022-11-17T12:35:31.747Z,99542.70
2022-11-17T12:38:15.783Z,99533.05
2022-11-17T12:40:52.598Z,99537.05
2022-11-17T12:43:23.783Z,99537.80
2022-11-17T12:45:57.686Z,99539.86
2022-11-17T12:48:35.098Z,99542.40
2022-11-17T12:51:53.768Z,99543.79
2022-11-17T12:54:52.556Z,99546.73
2022-11-17T12:57:27.913Z,99540.08
2022-11-17T13:00:14.262Z,99537.41
2022-11-17T13:02:57.617Z,99544.33
2022-11-17T13:05:29.854Z,99546.51
2022-11-17T13:08:15.863Z,99550.53
2022-11-17T13:10:44.608Z,99548.84
2022-11-17T13:13:24.275Z,99547.61
2022-11-17T13:16:00.761Z,99548.90
2022-11-17T13:18:41.389Z,99549.23
2022-11-17T13:21:24.228Z,99550.27
2022-11-17T13:23:53.200Z,99544.04
2022-11-17T13:26:25.410Z,99544.36
2022-11-17T13:29:12.831Z,99544.59
2022-11-17T13:31:40.836Z,99545.35
2022-11-17T13:34:23.083Z,99542.77
2022-11-17T13:36:59.950Z,99538.73
2022-11-17T13:39:28.306Z,99539.15
2022-11-17T13:41:57.777Z,99540.91
2022-11-17T13:44:28.393Z,99542.27
2022-11-17T13:46:56.447Z,99541.63
2022-11-17T13:49:39.086Z,99544.34
2022-11-17T13:52:41.979Z,99539.81
2022-11-17T13:55:19.963Z,99535.83
2022-11-17T13:58:33.624Z,99540.34
2022-11-17T14:01:02.168Z,99540.21
2022-11-17T14:03:40.389Z,99537.27
2022-11-17T14:06:11.514Z,99539.61
2022-11-17T14:08:42.790Z,99540.79
2022-11-17T14:11:10.567Z,99540.11
2022-11-17T14:13:50.403Z,99537.05
2022-11-17T14:16:23.041Z,99540.42
2022-11-17T14:19:03.930Z,99522.54
2022-11-17T14:21:32.877Z,99526.16
2022-11-17T14:24:11.198Z,99522.08
2022-11-17T14:26:44.237Z,99524.49
2022-11-17T14:29:13.240Z,99531.17
2022-11-17T14:31:41.164Z,99530.33
2022-11-17T14:34:09.129Z,99523.95
2022-11-17T14:36:38.965Z,99521.84
2022-11-17T14:39:24.928Z,99518.58
2022-11-17T14:41:52.645Z,99521.86
2022-11-17T14:44:23.151Z,99524.98
2022-11-17T14:46:50.883Z,99519.36
2022-11-17T14:49:19.743Z,99512.72
2022-11-17T14:51:51.148Z,99507.39
2022-11-17T14:54:24.852Z,99510.35
2022-11-17T14:56:58.020Z,99513.64
2022-11-17T14:59:25.993Z,99512.10
2022-11-17T15:01:54.158Z,99507.86
2022-11-17T15:04:48.824Z,99503.04
2022-11-17T15:07:09.629Z,99501.48
2022-11-17T15:09:37.354Z,99499.11
2022-11-17T15:12:05.385Z,99496.27
2022-11-17T15:14:36.535Z,99499.05
2022-11-17T15:17:06.005Z,99495.34
2022-11-17T15:19:37.288Z,99492.42
2022-11-17T15:22:05.506Z,99489.82
2022-11-17T15:24:37.652Z,99494.25
2022-11-17T15:27:05.806Z,99497.90
2022-11-17T15:29:34.138Z,99497.43
2022-11-17T15:32:02.425Z,99493.34
2022-11-17T15:34:30.369Z,99489.55
2022-11-17T15:36:58.794Z,99488.90
2022-11-17T15:39:26.592Z,99496.48
2022-11-17T15:41:54.532Z,99492.80
2022-11-17T15:44:22.269Z,99488.92
2022-11-17T15:46:50.174Z,99487.41
2022-11-17T15:49:18.321Z,99486.29
2022-11-17T15:51:47.557Z,99486.27
2022-11-17T15:54:20.249Z,99487.75
2022-11-17T15:56:50.262Z,99485.02
2022-11-17T15:59:18.505Z,99494.31
2022-11-17T16:01:47.104Z,99495.23
2022-11-17T16:04:15.703Z,99494.58
2022-11-17T16:06:46.282Z,99494.80
2022-11-17T16:09:18.255Z,99494.69
2022-11-17T16:11:49.186Z,99489.59
2022-11-17T16:14:20.087Z,99489.05
2022-11-17T16:17:14.806Z,99482.41
2022-11-17T16:19:46.876Z,99485.10
2022-11-17T16:22:24.745Z,99479.90
2022-11-17T16:24:52.398Z,99479.52
2022-11-17T16:27:20.249Z,99477.13
2022-11-17T16:29:51.193Z,99479.33
2022-11-17T16:32:18.849Z,99484.98
2022-11-17T16:34:48.566Z,99488.91
2022-11-17T16:37:18.568Z,99491.69
2022-11-17T16:39:48.926Z,99500.52
2022-11-17T16:46:32.231Z,99504.20
2022-11-17T16:49:07.203Z,99501.66
2022-11-17T16:52:09.196Z,99501.48
2022-11-17T16:54:40.392Z,99504.77
2022-11-17T16:57:48.568Z,99505.78
2022-11-17T17:00:34.665Z,99505.25
2022-11-17T17:03:04.387Z,99502.64
2022-11-17T17:05:38.790Z,99500.73
2022-11-17T17:08:13.020Z,99506.20
2022-11-17T17:10:41.496Z,99506.23
2022-11-17T17:13:14.828Z,99503.50
2022-11-17T17:15:42.640Z,99501.62
2022-11-17T17:18:12.660Z,99500.77
2022-11-17T17:20:49.943Z,99501.73
2022-11-17T17:23:31.582Z,99505.11
2022-11-17T17:26:16.930Z,99509.82
2022-11-17T17:28:58.397Z,99511.52
2022-11-17T17:31:46.066Z,99513.36
2022-11-17T17:34:16.574Z,99516.59
2022-11-17T17:36:57.755Z,99512.83
2022-11-17T17:39:39.053Z,99513.55
2022-11-17T17:42:14.767Z,99514.44
2022-11-17T17:44:42.544Z,99512.23
2022-11-17T17:47:22.166Z,99511.73
2022-11-17T17:49:50.799Z,99513.27
2022-11-17T17:52:20.783Z,99514.45
2022-11-17T17:54:59.096Z,99509.30
2022-11-17T17:57:34.040Z,99508.80
2022-11-17T18:00:16.133Z,99511.52
2022-11-17T18:02:53.204Z,99509.46
2022-11-17T18:05:37.900Z,99507.27
2022-11-17T18:08:15.602Z,99512.30
2022-11-17T18:10:45.805Z,99512.73
2022-11-17T18:13:16.723Z,99509.41
2022-11-17T18:15:56.423Z,99513.04
2022-11-17T18:18:42.244Z,99513.20
2022-11-17T18:21:29.460Z,99515.30
2022-11-17T18:24:16.954Z,99514.96
2022-11-17T18:26:52.171Z,99512.58
2022-11-17T18:29:27.810Z,99519.20
2022-11-17T18:31:57.956Z,99523.13
2022-11-17T18:34:30.156Z,99523.30
2022-11-17T18:37:11.496Z,99521.31
2022-11-17T18:39:48.426Z,99520.48
2022-11-17T18:42:24.383Z,99525.13
2022-11-17T18:44:52.902Z,99517.30
2022-11-17T18:47:33.691Z,99516.77
2022-11-17T18:50:11.710Z,99516.23
2022-11-17T18:52:48.037Z,99520.52
2022-11-17T18:55:27.293Z,99510.80
2022-11-17T18:57:59.045Z,99515.02
2022-11-17T19:00:30.087Z,99511.73
2022-11-17T19:03:08.618Z,99509.10
2022-11-17T19:05:42.078Z,99507.15
2022-11-17T19:08:20.995Z,99505.97
2022-11-17T19:10:55.407Z,99505.30
2022-11-17T19:13:24.499Z,99505.66
2022-11-17T19:15:52.853Z,99511.34
2022-11-17T19:18:21.146Z,99509.45
2022-11-17T19:20:49.763Z,99501.79
2022-11-17T19:23:18.622Z,99501.64
2022-11-17T19:25:57.963Z,99498.55
2022-11-17T19:28:28.926Z,99499.59
2022-11-17T19:31:06.631Z,99494.11
2022-11-17T19:33:39.725Z,99486.61
2022-11-17T19:36:20.124Z,99487.99
2022-11-17T19:38:58.320Z,99485.97
2022-11-17T19:41:39.323Z,99479.48
2022-11-17T19:44:24.172Z,99474.86
2022-11-17T19:46:53.082Z,99478.08
2022-11-17T19:49:21.026Z,99474.94
2022-11-17T19:51:48.891Z,99476.94
2022-11-17T19:54:17.191Z,99471.07
2022-11-17T19:56:45.286Z,99471.53
2022-11-17T19:59:16.356Z,99470.81
2022-11-17T20:01:45.673Z,99470.77
2022-11-17T20:04:14.300Z,99473.85
2022-11-17T20:06:43.271Z,99469.63
2022-11-17T20:09:13.597Z,99468.13
2022-11-17T20:11:42.318Z,99469.55
2022-11-17T20:14:13.385Z,99467.30
2022-11-17T20:16:42.214Z,99464.71
2022-11-17T20:19:11.322Z,99465.19
2022-11-17T20:21:39.551Z,99460.35
2022-11-17T20:24:08.159Z,99455.87
2022-11-17T20:26:40.017Z,99452.94
2022-11-17T20:29:25.126Z,99448.96
2022-11-17T20:32:00.285Z,99446.25
2022-11-17T20:34:31.573Z,99446.13
2022-11-17T20:37:03.051Z,99448.60
2022-11-17T20:39:38.293Z,99446.77
2022-11-17T20:42:06.618Z,99442.52
2022-11-17T20:44:37.270Z,99441.36
2022-11-17T20:47:05.559Z,99437.76
2022-11-17T20:49:33.716Z,99438.20
2022-11-17T20:52:13.050Z,99433.58
2022-11-17T20:54:41.857Z,99428.26
2022-11-17T20:57:10.409Z,99428.76
2022-11-17T20:59:45.912Z,99427.44
2022-11-17T21:02:18.314Z,99427.79
2022-11-17T21:04:48.328Z,99425.42
2022-11-17T21:07:26.201Z,99424.45
2022-11-17T21:10:08.872Z,99418.64
2022-11-17T21:13:11.291Z,99418.97
2022-11-17T21:15:46.979Z,99421.23
2022-11-17T21:18:32.651Z,99423.08
2022-11-17T21:21:16.290Z,99425.11
2022-11-17T21:24:07.458Z,99423.19
2022-11-17T21:27:47.973Z,99416.52
2022-11-17T21:30:22.778Z,99412.88
2022-11-17T21:32:58.417Z,99421.50
2022-11-17T21:36:05.871Z,99420.51
2022-11-17T21:38:41.543Z,99416.80
2022-11-17T21:41:42.588Z,99408.98
2022-11-17T21:44:39.452Z,99408.13
2022-11-17T21:48:11.339Z,99408.48
2022-11-17T21:51:00.804Z,99410.17
2022-11-17T21:53:34.884Z,99406.23
2022-11-17T21:56:16.023Z,99403.33
2022-11-17T21:59:01.201Z,99404.70
2022-11-17T22:01:41.952Z,99403.34
2022-11-17T22:04:12.422Z,99406.84
2022-11-17T22:07:10.142Z,99408.38
2022-11-17T22:10:23.368Z,99403.05
2022-11-17T22:13:16.399Z,99398.59
2022-11-17T22:16:24.300Z,99397.24
2022-11-17T22:19:24.804Z,99396.91
2022-11-17T22:22:05.697Z,99396.05
2022-11-17T22:24:51.249Z,99401.31
2022-11-17T22:27:33.645Z,99399.73
2022-11-17T22:30:16.987Z,99399.38
2022-11-17T22:32:56.162Z,99395.96
2022-11-17T22:35:42.907Z,99390.52
2022-11-17T22:38:31.681Z,99391.42
2022-11-17T22:41:14.079Z,99394.67
2022-11-17T22:44:04.311Z,99394.52
2022-11-17T22:46:45.253Z,99396.21
2022-11-17T22:49:21.982Z,99390.73
2022-11-17T22:52:17.421Z,99386.46
2022-11-17T22:55:03.618Z,99381.08
2022-11-17T22:57:50.060Z,99383.55
2022-11-17T23:00:39.780Z,99383.29
2022-11-17T23:06:23.725Z,99372.02
2022-11-17T23:08:59.623Z,99368.98
2022-11-17T23:11:41.249Z,99366.37
2022-11-17T23:14:23.848Z,99364.80
2022-11-17T23:16:56.135Z,99362.88
2022-11-17T23:19:30.749Z,99361.87
2022-11-17T23:22:17.162Z,99357.80
2022-11-17T23:24:54.016Z,99351.63
2022-11-17T23:27:23.488Z,99348.02
2022-11-17T23:29:54.043Z,99346.83
2022-11-17T23:32:30.539Z,99355.88
2022-11-17T23:35:01.844Z,99358.63
2022-11-17T23:37:33.867Z,99355.02
2022-11-17T23:40:14.908Z,99352.32
2022-11-17T23:42:43.502Z,99353.89
2022-11-17T23:45:13.917Z,99354.54
2022-11-17T23:47:52.185Z,99354.55
2022-11-17T23:50:20.673Z,99354.21
2022-11-17T23:52:56.222Z,99356.27
2022-11-17T23:55:31.393Z,99355.44
2022-11-17T23:58:03.875Z,99360.94
